This is the latest recevied weather packets stored in our database for station/object WE8L. If no packets are shown the sender has not sent any weather packets the latest 1 day(s).
| Time | Temp. | Humidity | Pressure | Rain* | Wind** | Luminosity | Snow |
|---|---|---|---|---|---|---|---|
| 1777982386 | 13.89° C | 98% | 1011.2 hPa | 0 mm | 0.89 m/s, 238° | 19 W/m² | - |
| 1777982083 | 13.89° C | 98% | 1011.4 hPa | 0 mm | 0.45 m/s, 135° | 16 W/m² | - |
| 1777981781 | 13.89° C | 98% | 1011.2 hPa | 0 mm | 0 m/s | 16 W/m² | - |
| 1777981477 | 13.89° C | 98% | 1011.3 hPa | 1.78 mm | 0 m/s | 13 W/m² | - |
| 1777981174 | 13.89° C | 98% | 1011.1 hPa | 1.78 mm | 0.45 m/s, 216° | 14 W/m² | - |
| 1777980865 | 13.89° C | 98% | 1010.8 hPa | 0 mm | 0.45 m/s, 219° | 8 W/m² | - |
| 1777980561 | 13.89° C | 98% | 1010.8 hPa | 0 mm | 0 m/s | 4 W/m² | - |
| 1777980259 | 13.89° C | 98% | 1010.8 hPa | 0 mm | 0 m/s | 3 W/m² | - |
| 1777979954 | 13.89° C | 98% | 1010.6 hPa | 0 mm | 0.45 m/s, 208° | 3 W/m² | - |
| 1777979649 | 13.89° C | 97% | 1010.4 hPa | 0 mm | 0 m/s | 3 W/m² | - |
| 1777979346 | 13.89° C | 97% | 1010.3 hPa | 0 mm | 0.45 m/s, 128° | 4 W/m² | - |
| 1777979043 | 13.89° C | 97% | 1010.1 hPa | 0 mm | 0.45 m/s, 156° | 2 W/m² | - |
| 1777978740 | 13.89° C | 97% | 1010.2 hPa | 0 mm | 0.45 m/s, 173° | 2 W/m² | - |
| 1777978436 | 13.89° C | 97% | 1010.2 hPa | 1.78 mm | 0.45 m/s, 171° | 1 W/m² | - |
| 1777978132 | 13.89° C | 97% | 1010.2 hPa | 1.78 mm | 0.45 m/s, 155° | 1 W/m² | - |
| 1777977830 | 13.89° C | 97% | 1010.4 hPa | 0 mm | 0.45 m/s, 189° | 0 W/m² | - |
| 1777977525 | 13.89° C | 97% | 1010.8 hPa | 0 mm | 0 m/s | 0 W/m² | - |
| 1777977224 | 13.89° C | 96% | 1011 hPa | 0 mm | 0 m/s | 0 W/m² | - |
| 1777976920 | 13.89° C | 96% | 1011 hPa | 0 mm | 0 m/s | 0 W/m² | - |
| 1777976617 | 13.89° C | 96% | 1011.3 hPa | 1.27 mm | 0 m/s | 0 W/m² | - |
| 1777976313 | 13.89° C | 95% | 1011.3 hPa | 1.27 mm | 0 m/s | 0 W/m² | - |
| 1777976008 | 13.89° C | 95% | 1011.4 hPa | 3.05 mm | 0 m/s | 0 W/m² | - |
| 1777975705 | 13.89° C | 95% | 1011.6 hPa | 6.1 mm | 0.45 m/s, 238° | 0 W/m² | - |
| 1777975401 | 13.89° C | 95% | 1011.8 hPa | 4.83 mm | 0.45 m/s, 223° | 0 W/m² | - |
| 1777975097 | 13.89° C | 94% | 1012 hPa | 3.05 mm | 1.34 m/s, 274° | 0 W/m² | - |
* Rain latest hour (hover to see other rain measurements)
** Current wind speed in m/s (hover to see current wind gust speed)